Time;durP1;ratioP1;P1;durP2;ratioP2;P2;SDS_P1;SDS_P2;PMS_P1;PMS_P2;Temp;Humidity;BMP_temperature;BMP_pressure;BME280_temperature;BME280_humidity;BME280_pressure;Samples;Min_cycle;Max_cycle;Signal;HPM_P1;HPM_P2
2022/05/21 00:00:57;;;;;;;5.10;1.70;;;;;;;16.76;92.67;100628.88;5020091;28;20923;-51
2022/05/21 00:03:24;;;;;;;1.60;1.50;;;;;;;16.68;93.73;100637.03;5017750;28;20812;-52
2022/05/21 00:05:50;;;;;;;1.75;1.65;;;;;;;16.55;91.33;100635.63;5018093;28;20687;-52
2022/05/21 00:08:16;;;;;;;1.52;1.27;;;;;;;16.68;91.58;100651.13;5018525;28;20264;-52
2022/05/21 00:10:43;;;;;;;2.65;1.15;;;;;;;16.73;91.51;100648.34;5017778;28;20256;-52
2022/05/21 00:13:11;;;;;;;1.45;1.35;;;;;;;16.73;92.05;100640.41;5016023;28;20884;-52
2022/05/21 00:15:40;;;;;;;1.00;1.00;;;;;;;16.71;92.22;100647.53;5020575;28;20240;-52
2022/05/21 00:18:07;;;;;;;2.28;1.38;;;;;;;16.58;91.13;100652.31;5015160;28;20236;-52
2022/05/21 00:20:49;;;;;;;2.45;1.42;;;;;;;16.72;91.82;100665.19;5015922;28;20325;-53
2022/05/21 00:23:18;;;;;;;1.42;1.33;;;;;;;16.67;90.45;100662.66;5011973;28;20231;-53
2022/05/21 00:25:47;;;;;;;1.30;1.20;;;;;;;16.61;91.10;100662.81;5019421;28;20743;-51
2022/05/21 00:28:14;;;;;;;1.45;1.35;;;;;;;16.58;91.03;100673.50;5016275;28;21052;-52
2022/05/21 00:30:42;;;;;;;1.58;1.45;;;;;;;16.57;91.43;100668.25;5018648;28;20272;-53
2022/05/21 00:33:08;;;;;;;1.15;1.15;;;;;;;16.55;90.55;100675.38;5015996;28;20702;-53
2022/05/21 00:35:35;;;;;;;1.35;1.27;;;;;;;16.57;91.00;100684.16;5022065;28;20338;-52
2022/05/21 00:38:01;;;;;;;1.83;1.63;;;;;;;16.42;90.34;100693.34;5019556;28;20792;-52
2022/05/21 00:40:28;;;;;;;1.40;1.30;;;;;;;16.38;91.97;100691.69;5021558;28;20224;-52
2022/05/21 00:42:55;;;;;;;1.85;1.75;;;;;;;16.39;91.25;100698.72;5019121;28;20622;-52
2022/05/21 00:45:21;;;;;;;3.35;1.48;;;;;;;16.39;90.55;100709.34;5018122;28;20240;-52
2022/05/21 00:47:49;;;;;;;1.98;1.83;;;;;;;16.35;90.51;100713.84;5014430;28;20752;-52
2022/05/21 00:50:17;;;;;;;6.03;1.88;;;;;;;16.38;90.85;100718.19;5020520;28;20308;-53
2022/05/21 00:52:44;;;;;;;1.50;1.40;;;;;;;16.40;90.95;100717.25;5015225;28;20239;-52
2022/05/21 00:55:13;;;;;;;2.75;1.50;;;;;;;16.44;88.94;100726.00;5015862;28;20294;-52
2022/05/21 00:57:43;;;;;;;1.75;1.65;;;;;;;16.43;89.62;100727.78;5018056;28;20289;-51
2022/05/21 01:00:12;;;;;;;1.60;1.50;;;;;;;16.17;89.48;100741.66;5021086;28;20236;-54
2022/05/21 01:02:41;;;;;;;4.32;1.90;;;;;;;16.20;89.61;100768.09;5021099;28;20252;-53
2022/05/21 01:05:11;;;;;;;5.45;2.05;;;;;;;16.13;89.74;100763.84;5017702;28;20240;-52
2022/05/21 01:07:38;;;;;;;2.88;1.80;;;;;;;16.09;90.13;100764.81;5015978;28;20730;-52
2022/05/21 01:10:05;;;;;;;6.20;1.52;;;;;;;16.16;90.37;100771.72;5019677;28;20232;-52
2022/05/21 01:12:34;;;;;;;1.60;1.50;;;;;;;16.16;91.01;100787.59;5018747;28;20241;-53
2022/05/21 01:15:04;;;;;;;2.83;2.00;;;;;;;16.21;89.37;100785.72;5013055;28;20234;-53
2022/05/21 01:17:30;;;;;;;3.28;1.90;;;;;;;16.08;89.50;100786.06;5022774;28;20302;-54
2022/05/21 01:20:00;;;;;;;2.20;2.03;;;;;;;16.17;88.97;100788.47;5016653;28;20224;-53
2022/05/21 01:22:28;;;;;;;2.75;2.10;;;;;;;16.14;89.74;100792.06;5010842;28;20228;-53
2022/05/21 01:24:54;;;;;;;2.67;1.70;;;;;;;16.02;86.04;100805.59;5018417;28;20319;-52
2022/05/21 01:27:21;;;;;;;3.15;1.65;;;;;;;15.91;87.97;100808.47;5014938;28;20350;-52
2022/05/21 01:29:48;;;;;;;1.80;1.50;;;;;;;15.92;87.36;100794.31;5016734;28;20661;-52
2022/05/21 01:32:17;;;;;;;4.43;1.60;;;;;;;15.96;86.61;100806.59;5012627;28;20299;-52
2022/05/21 01:34:43;;;;;;;2.08;1.52;;;;;;;15.90;87.82;100797.91;5017440;28;20568;-52
2022/05/21 01:37:09;;;;;;;1.77;1.67;;;;;;;15.82;88.12;100808.66;5015436;28;20272;-52
2022/05/21 01:39:37;;;;;;;2.13;1.65;;;;;;;15.74;88.68;100802.69;5019138;28;20268;-53
2022/05/21 01:42:04;;;;;;;3.22;1.70;;;;;;;15.61;88.35;100809.94;5019833;28;20257;-52
2022/05/21 01:44:39;;;;;;;2.38;2.15;;;;;;;15.65;88.47;100822.22;5019662;28;20225;-52
2022/05/21 01:47:07;;;;;;;2.00;1.52;;;;;;;15.59;89.29;100817.06;5025177;28;20317;-53
2022/05/21 01:49:33;;;;;;;1.67;1.58;;;;;;;15.46;90.90;100812.91;5023402;28;20236;-52
2022/05/21 01:52:00;;;;;;;2.20;1.75;;;;;;;15.58;89.79;100823.25;5008717;28;20241;-55
2022/05/21 01:54:27;;;;;;;2.55;1.50;;;;;;;15.54;90.44;100824.22;5022175;28;20257;-53
2022/05/21 01:56:55;;;;;;;1.83;1.38;;;;;;;15.53;89.91;100833.06;5024646;28;20233;-51
2022/05/21 01:59:22;;;;;;;2.53;1.70;;;;;;;15.41;90.80;100828.00;5024683;28;20236;-54
2022/05/21 02:01:48;;;;;;;2.42;2.25;;;;;;;15.44;92.15;100838.53;5026744;28;20874;-53
2022/05/21 02:04:15;;;;;;;2.33;1.95;;;;;;;15.55;90.46;100825.97;5017889;28;20247;-52
2022/05/21 02:06:42;;;;;;;1.80;1.65;;;;;;;15.41;89.60;100838.56;5026576;28;20260;-52
2022/05/21 02:09:08;;;;;;;4.65;1.85;;;;;;;15.41;90.47;100839.47;5017763;28;20240;-52
2022/05/21 02:11:35;;;;;;;1.95;1.85;;;;;;;15.40;90.73;100835.06;5026957;28;20256;-51
2022/05/21 02:14:02;;;;;;;5.05;1.80;;;;;;;15.34;91.05;100847.53;5012662;28;20332;-54
2022/05/21 02:16:29;;;;;;;5.00;1.88;;;;;;;15.39;89.62;100850.97;5031132;28;20246;-52
2022/05/21 02:18:55;;;;;;;1.80;1.65;;;;;;;15.34;90.66;100852.81;5017399;28;20238;-52
2022/05/21 02:21:22;;;;;;;2.55;2.05;;;;;;;15.27;90.63;100867.97;5024505;28;20718;-53
2022/05/21 02:23:48;;;;;;;1.88;1.67;;;;;;;15.37;90.85;100863.34;5018727;28;20236;-53
2022/05/21 02:26:17;;;;;;;1.83;1.73;;;;;;;15.33;89.51;100881.06;5017266;28;20232;-54
2022/05/21 02:28:43;;;;;;;2.13;1.50;;;;;;;15.30;91.10;100874.94;5023815;28;20244;-52
2022/05/21 02:31:11;;;;;;;2.78;1.95;;;;;;;15.42;90.32;100872.09;5019898;28;20586;-53
2022/05/21 02:33:37;;;;;;;2.30;1.73;;;;;;;15.38;87.59;100881.88;5019582;28;20291;-54
2022/05/21 02:36:04;;;;;;;2.00;1.38;;;;;;;15.33;88.38;100886.34;5025664;28;20406;-53
2022/05/21 02:41:16;;;;;;;2.05;1.75;;;;;;;15.24;90.67;100887.41;5026342;28;20290;-53
2022/05/21 02:43:43;;;;;;;2.97;2.20;;;;;;;15.20;92.17;100888.38;5026888;28;20777;-51
2022/05/21 02:46:11;;;;;;;2.28;2.10;;;;;;;15.25;92.19;100898.84;5015595;28;20232;-52
2022/05/21 02:48:37;;;;;;;6.97;2.25;;;;;;;15.19;91.93;100897.19;5018208;28;20681;-52
2022/05/21 02:51:04;;;;;;;2.72;2.00;;;;;;;15.35;88.82;100907.50;5026817;28;22994;-52
2022/05/21 02:53:30;;;;;;;1.73;1.63;;;;;;;15.27;89.90;100915.59;5024037;28;20256;-53
2022/05/21 02:55:57;;;;;;;3.05;1.77;;;;;;;15.32;90.60;100907.56;5019321;28;20691;-54
2022/05/21 02:58:24;;;;;;;2.63;2.42;;;;;;;15.32;88.24;100921.66;5022931;28;20244;-52
2022/05/21 03:00:51;;;;;;;1.80;1.70;;;;;;;15.35;87.37;100916.31;5022828;28;20250;-53
2022/05/21 03:03:19;;;;;;;3.50;1.58;;;;;;;15.26;86.42;100924.41;5017419;28;20272;-53
2022/05/21 03:05:45;;;;;;;1.80;1.70;;;;;;;15.31;86.05;100921.69;5022682;28;20229;-53
2022/05/21 03:10:57;;;;;;;2.20;2.03;;;;;;;15.07;86.33;100945.00;5028789;28;20604;-53
2022/05/21 03:13:23;;;;;;;2.13;1.98;;;;;;;15.03;86.51;100951.25;5025010;28;20703;-52
2022/05/21 03:15:50;;;;;;;2.30;2.10;;;;;;;15.05;85.88;100952.06;5026529;28;20236;-53
2022/05/21 03:18:17;;;;;;;3.42;2.47;;;;;;;14.98;85.83;100959.22;5033340;28;20252;-52
2022/05/21 03:20:44;;;;;;;2.10;2.00;;;;;;;15.07;84.33;100963.50;5022603;28;20633;-52
2022/05/21 03:23:11;;;;;;;2.38;2.20;;;;;;;15.00;84.47;100953.94;5021823;28;20645;-53
2022/05/21 03:25:38;;;;;;;4.03;2.03;;;;;;;14.85;84.39;100959.44;5018920;28;20229;-52
2022/05/21 03:28:05;;;;;;;4.07;2.38;;;;;;;14.75;84.82;100970.16;5028675;28;20253;-53
2022/05/21 03:30:32;;;;;;;3.42;2.25;;;;;;;14.74;85.11;100984.28;5025368;28;20291;-55
2022/05/21 03:32:59;;;;;;;2.22;1.92;;;;;;;14.71;85.14;100979.03;5022322;28;20642;-52
2022/05/21 03:35:26;;;;;;;2.00;1.77;;;;;;;14.76;85.26;100965.75;5021360;28;20963;-54
2022/05/21 03:37:56;;;;;;;1.98;1.83;;;;;;;14.64;83.79;100972.09;5019522;28;20929;-52
2022/05/21 03:40:24;;;;;;;4.47;1.90;;;;;;;14.65;83.60;100984.41;5021568;28;20234;-52
2022/05/21 03:42:51;;;;;;;2.72;2.17;;;;;;;14.58;84.79;100993.31;5020059;28;20256;-52
2022/05/21 03:45:17;;;;;;;3.78;1.95;;;;;;;14.47;84.91;100989.91;5020784;28;20297;-51
2022/05/21 03:47:44;;;;;;;2.00;1.70;;;;;;;14.52;84.82;101003.94;5024553;28;20228;-52
2022/05/21 03:50:13;;;;;;;3.50;1.63;;;;;;;14.47;84.39;101013.69;5020461;28;20310;-53
2022/05/21 03:52:39;;;;;;;1.55;1.45;;;;;;;14.45;86.44;101013.69;5024292;28;20228;-51
2022/05/21 03:55:08;;;;;;;3.42;1.95;;;;;;;14.36;85.27;101026.16;5023872;28;20248;-56
2022/05/21 03:57:35;;;;;;;1.65;1.50;;;;;;;14.31;86.51;101020.91;5020455;28;22059;-52
2022/05/21 04:00:03;;;;;;;3.58;1.67;;;;;;;14.17;86.43;101036.03;5011394;28;20275;-54
2022/05/21 04:02:29;;;;;;;2.30;1.70;;;;;;;14.01;87.58;101037.97;5021922;28;20228;-53
2022/05/21 04:04:56;;;;;;;1.65;1.50;;;;;;;14.05;88.43;101042.31;5018825;28;20334;-53
2022/05/21 04:07:22;;;;;;;3.15;1.92;;;;;;;14.14;87.82;101036.06;5024220;28;20297;-52
2022/05/21 04:09:49;;;;;;;3.58;1.35;;;;;;;14.04;88.02;101048.50;5021180;28;20753;-52
2022/05/21 04:12:17;;;;;;;2.55;1.63;;;;;;;14.00;87.11;101054.69;5024441;28;20896;-53
2022/05/21 04:14:43;;;;;;;2.63;1.70;;;;;;;14.03;87.19;101059.94;5015651;28;20622;-53
2022/05/21 04:17:13;;;;;;;3.20;2.10;;;;;;;13.90;88.51;101066.22;5020777;28;20232;-53
2022/05/21 04:19:40;;;;;;;3.42;1.83;;;;;;;14.03;85.99;101070.50;5028909;28;20457;-53
2022/05/21 04:22:07;;;;;;;2.35;1.73;;;;;;;13.98;85.73;101082.88;5022700;28;20852;-52
2022/05/21 04:24:33;;;;;;;3.25;1.55;;;;;;;13.99;87.10;101081.97;5023869;28;20613;-53
2022/05/21 04:27:00;;;;;;;1.75;1.20;;;;;;;13.91;86.11;101102.31;5015340;28;20260;-52
2022/05/21 04:29:27;;;;;;;2.78;1.63;;;;;;;13.89;83.47;101106.72;5015706;28;20260;-52
2022/05/21 04:31:54;;;;;;;1.67;1.40;;;;;;;14.02;84.09;101108.34;5024649;28;20310;-54
2022/05/21 04:34:20;;;;;;;1.83;1.13;;;;;;;14.09;84.26;101121.47;5019793;28;20687;-51
2022/05/21 04:36:46;;;;;;;1.30;1.10;;;;;;;14.15;81.37;101119.69;5023302;28;20263;-53
2022/05/21 04:39:13;;;;;;;1.73;1.40;;;;;;;14.15;82.45;101131.13;5016532;28;20255;-51
2022/05/21 04:41:39;;;;;;;1.75;1.50;;;;;;;14.14;81.99;101124.06;5016733;28;20279;-54
2022/05/21 04:44:07;;;;;;;3.00;1.30;;;;;;;14.06;82.15;101126.78;5020718;28;20296;-52
2022/05/21 04:46:35;;;;;;;1.70;1.50;;;;;;;14.17;81.68;101139.88;5023633;28;20263;-53
2022/05/21 04:49:01;;;;;;;2.00;1.45;;;;;;;14.14;81.83;101139.91;5012720;28;20624;-52
2022/05/21 04:51:27;;;;;;;1.88;1.77;;;;;;;14.16;82.29;101148.72;5016050;28;20272;-51
2022/05/21 04:53:54;;;;;;;3.17;1.90;;;;;;;14.15;82.41;101146.09;5022368;28;20263;-53
2022/05/21 04:56:20;;;;;;;2.53;2.03;;;;;;;14.08;82.31;101156.72;5020023;28;20237;-53
2022/05/21 04:58:47;;;;;;;2.38;1.73;;;;;;;13.90;82.66;101155.97;5016592;28;20236;-52
2022/05/21 05:01:13;;;;;;;3.08;2.13;;;;;;;13.94;83.74;101157.72;5020443;28;20317;-51
2022/05/21 05:03:41;;;;;;;4.28;1.90;;;;;;;13.87;84.19;101158.66;5025531;28;20745;-53
2022/05/21 05:06:08;;;;;;;3.78;1.70;;;;;;;13.79;83.47;101163.97;5024329;28;20240;-52
2022/05/21 05:08:35;;;;;;;2.70;2.58;;;;;;;13.67;83.33;101166.72;5022306;28;20287;-51
2022/05/21 05:11:01;;;;;;;2.10;1.90;;;;;;;13.76;85.13;101158.69;5015902;28;20252;-52
2022/05/21 05:13:28;;;;;;;3.15;1.90;;;;;;;13.71;84.83;101156.09;5019293;28;20430;-52
2022/05/21 05:15:54;;;;;;;3.28;2.08;;;;;;;13.76;84.58;101172.81;5020104;28;20241;-52
2022/05/21 05:18:22;;;;;;;2.97;1.65;;;;;;;13.72;85.47;101173.69;5028951;28;20277;-54
2022/05/21 05:20:50;;;;;;;2.50;1.88;;;;;;;13.63;84.21;101173.75;5025384;28;20233;-53
2022/05/21 05:23:17;;;;;;;8.13;2.10;;;;;;;13.67;83.63;101170.22;5024107;28;20239;-51
2022/05/21 05:25:43;;;;;;;2.90;2.03;;;;;;;13.64;83.66;101180.78;5023298;28;20236;-51
2022/05/21 05:28:15;;;;;;;2.58;2.35;;;;;;;13.60;84.24;101177.28;5017600;28;20245;-52
2022/05/21 05:30:42;;;;;;;2.53;1.80;;;;;;;13.62;82.99;101172.03;5020957;28;20713;-52
2022/05/21 05:33:08;;;;;;;1.92;1.83;;;;;;;13.85;80.33;101180.63;5028376;28;20260;-53
2022/05/21 05:35:34;;;;;;;2.00;1.83;;;;;;;13.66;80.01;101176.38;5021891;28;20263;-53
2022/05/21 05:38:06;;;;;;;1.77;1.67;;;;;;;13.58;80.64;101180.81;5019821;28;20232;-50
2022/05/21 05:40:33;;;;;;;3.50;2.10;;;;;;;13.74;81.38;101194.81;5017015;28;20723;-53
2022/05/21 05:43:00;;;;;;;3.70;1.90;;;;;;;13.80;81.26;101189.50;5023790;28;20283;-53
2022/05/21 05:45:27;;;;;;;3.10;2.03;;;;;;;13.64;80.40;101196.63;5019351;28;20651;-52
2022/05/21 05:47:53;;;;;;;1.75;1.65;;;;;;;13.88;79.84;101194.72;5021656;28;20655;-53
2022/05/21 05:50:20;;;;;;;1.85;1.48;;;;;;;13.75;79.88;101197.41;5023198;28;20236;-51
2022/05/21 05:52:46;;;;;;;2.50;1.60;;;;;;;13.90;80.20;101198.19;5029130;28;20256;-53
2022/05/21 05:55:14;;;;;;;4.65;2.60;;;;;;;13.91;79.63;101194.69;5019800;28;20694;-56
2022/05/21 05:57:40;;;;;;;2.05;1.77;;;;;;;13.78;78.26;101184.22;5028162;28;20239;-54
2022/05/21 06:00:07;;;;;;;2.17;1.75;;;;;;;13.76;78.23;101186.00;5016985;28;20232;-51
2022/05/21 06:05:20;;;;;;;4.65;2.22;;;;;;;13.81;78.14;101200.03;5024597;28;20375;-52
2022/05/21 06:07:48;;;;;;;4.78;2.63;;;;;;;13.91;78.17;101200.84;5019765;28;20320;-53
2022/05/21 06:10:18;;;;;;;3.53;2.25;;;;;;;13.95;78.78;101196.41;5021734;28;20329;-52
2022/05/21 06:12:44;;;;;;;2.63;1.75;;;;;;;14.06;78.61;101205.13;5022480;28;20240;-52
2022/05/21 06:15:12;;;;;;;4.05;2.13;;;;;;;14.31;76.94;101211.94;5020603;28;20784;-53
2022/05/21 06:17:38;;;;;;;2.78;2.15;;;;;;;14.38;75.49;101212.78;5026395;28;20267;-52
2022/05/21 06:20:06;;;;;;;4.03;2.33;;;;;;;14.40;75.27;101215.41;5026566;28;20306;-52
2022/05/21 06:22:33;;;;;;;15.27;3.03;;;;;;;14.43;74.74;101221.56;5014004;28;20342;-52
2022/05/21 06:25:00;;;;;;;3.17;2.08;;;;;;;14.31;74.49;101227.78;5019881;28;20228;-52
2022/05/21 06:27:27;;;;;;;3.08;2.17;;;;;;;14.21;74.23;101231.41;5013132;28;20723;-54
2022/05/21 06:29:54;;;;;;;3.88;2.03;;;;;;;14.20;74.67;101228.78;5016789;28;20264;-54
2022/05/21 06:32:20;;;;;;;2.20;2.00;;;;;;;14.08;74.05;101240.31;5003412;28;20268;-54
2022/05/21 06:34:46;;;;;;;3.85;1.90;;;;;;;14.09;75.52;101227.09;5008574;28;20744;-55
2022/05/21 06:37:13;;;;;;;3.47;2.17;;;;;;;14.21;73.31;101228.75;5013985;28;20264;-51
2022/05/21 06:39:42;;;;;;;4.55;2.00;;;;;;;14.17;74.46;101234.09;5018964;28;20256;-54
2022/05/21 06:42:09;;;;;;;2.28;1.88;;;;;;;14.07;75.07;101228.91;5023333;28;20641;-51
2022/05/21 06:44:37;;;;;;;7.30;2.17;;;;;;;14.14;74.58;101234.97;5025423;28;20417;-52
2022/05/21 06:47:04;;;;;;;1.80;1.70;;;;;;;14.13;75.99;101225.31;5022648;28;20232;-54
2022/05/21 06:49:30;;;;;;;3.47;2.20;;;;;;;14.17;76.64;101237.59;5020733;28;20237;-51
2022/05/21 06:51:58;;;;;;;2.63;2.20;;;;;;;14.14;76.87;101239.38;5018421;28;20264;-52
2022/05/21 06:54:25;;;;;;;1.85;1.75;;;;;;;14.20;76.09;101227.00;5026844;28;20235;-54
2022/05/21 06:56:52;;;;;;;2.15;1.95;;;;;;;14.20;76.05;101234.06;5023625;28;20233;-51
2022/05/21 06:59:18;;;;;;;3.17;1.67;;;;;;;14.25;76.70;101249.00;5027938;28;20252;-52
2022/05/21 07:01:46;;;;;;;4.35;1.90;;;;;;;14.23;75.05;101231.41;5021154;28;20241;-52
2022/05/21 07:04:14;;;;;;;5.60;1.55;;;;;;;14.13;74.46;101230.59;5021621;28;20236;-54
2022/05/21 07:09:24;;;;;;;1.92;1.08;;;;;;;14.07;73.79;101244.75;5017687;28;20264;-52
2022/05/21 07:11:51;;;;;;;4.03;1.25;;;;;;;14.01;75.17;101243.91;5025951;28;20616;-53
2022/05/21 07:14:18;;;;;;;2.30;1.50;;;;;;;14.07;75.16;101262.31;5026854;28;20260;-51
2022/05/21 07:16:48;;;;;;;1.40;1.30;;;;;;;14.04;74.65;101254.44;5026107;28;20244;-52
2022/05/21 07:19:14;;;;;;;2.55;1.60;;;;;;;14.00;73.61;101250.03;5021822;28;20298;-53
2022/05/21 07:21:40;;;;;;;1.63;1.48;;;;;;;14.06;73.96;101257.94;5011101;28;20315;-51
2022/05/21 07:24:07;;;;;;;3.60;1.67;;;;;;;14.27;73.87;101255.13;5022407;28;20322;-52
2022/05/21 07:26:33;;;;;;;6.15;2.15;;;;;;;14.38;74.06;101255.03;5019979;28;20252;-55
2022/05/21 07:29:00;;;;;;;1.20;1.10;;;;;;;14.48;74.42;101255.84;5013611;28;20235;-52
2022/05/21 07:31:26;;;;;;;3.60;1.70;;;;;;;14.60;73.70;101254.88;5027609;28;20515;-51
2022/05/21 07:33:54;;;;;;;1.83;1.50;;;;;;;14.70;72.06;101256.56;5024564;28;20286;-52
2022/05/21 07:36:20;;;;;;;2.15;1.40;;;;;;;14.40;72.96;101244.47;5014093;28;20265;-53
2022/05/21 07:38:49;;;;;;;3.00;1.50;;;;;;;14.30;74.62;101236.63;5025513;28;20714;-54
2022/05/21 07:41:16;;;;;;;2.80;1.48;;;;;;;14.61;74.58;101240.81;5018282;28;20292;-52
2022/05/21 07:43:43;;;;;;;1.48;1.25;;;;;;;14.60;74.79;101234.66;5017930;28;20237;-52
2022/05/21 07:46:09;;;;;;;2.00;1.20;;;;;;;14.78;74.88;101233.59;5018653;28;20858;-52
2022/05/21 07:48:35;;;;;;;3.10;1.60;;;;;;;15.03;75.35;101229.78;5023477;28;20252;-53
2022/05/21 07:51:04;;;;;;;1.80;1.45;;;;;;;15.22;74.21;101225.13;5021403;28;20643;-52
2022/05/21 07:53:33;;;;;;;2.63;1.20;;;;;;;15.46;73.62;101236.31;5024310;28;20679;-52
2022/05/21 07:56:00;;;;;;;4.13;1.92;;;;;;;15.46;71.63;101244.25;5020377;28;20251;-52
2022/05/21 07:58:30;;;;;;;2.95;1.80;;;;;;;15.39;72.18;101224.06;5012054;28;20249;-52
2022/05/21 08:00:57;;;;;;;2.88;1.60;;;;;;;15.56;72.32;101216.75;5017133;28;20237;-52
2022/05/21 08:03:24;;;;;;;2.45;1.67;;;;;;;15.56;72.14;101221.19;5022281;28;20256;-52
2022/05/21 08:05:51;;;;;;;3.13;2.53;;;;;;;15.75;71.72;101223.56;5029639;28;20265;-53
2022/05/21 08:08:18;;;;;;;2.47;1.67;;;;;;;15.80;71.44;101217.34;5021743;28;20276;-52
2022/05/21 08:10:46;;;;;;;3.83;1.98;;;;;;;15.89;69.99;101210.13;5022689;28;20286;-53
2022/05/21 08:13:14;;;;;;;2.80;1.70;;;;;;;16.04;70.77;101210.78;5019589;28;20653;-52
2022/05/21 08:15:41;;;;;;;3.25;1.70;;;;;;;16.13;71.04;101203.56;5024212;28;20260;-52
2022/05/21 08:18:07;;;;;;;2.38;1.58;;;;;;;16.27;70.55;101211.28;5017569;28;20266;-52
2022/05/21 08:20:35;;;;;;;2.42;1.50;;;;;;;16.47;69.06;101210.94;5011190;28;20260;-51
2022/05/21 08:28:27;;;;;;;1.33;1.23;;;;;;;16.30;68.57;101213.00;4978225;28;20237;-51
2022/05/21 08:30:54;;;;;;;2.88;1.45;;;;;;;16.21;68.44;101209.59;5021759;28;20286;-52
2022/05/21 08:33:22;;;;;;;3.17;2.20;;;;;;;16.23;69.14;101205.16;5019512;28;20644;-52
2022/05/21 08:35:48;;;;;;;5.38;1.42;;;;;;;16.25;68.88;101204.25;5014742;28;20248;-54
2022/05/21 08:38:16;;;;;;;3.00;2.08;;;;;;;16.40;68.88;101209.31;5028963;28;20622;-54
2022/05/21 08:40:45;;;;;;;2.22;2.03;;;;;;;16.35;67.41;101195.25;5003655;28;20240;-51
2022/05/21 08:43:20;;;;;;;1.70;1.38;;;;;;;16.36;68.49;101213.78;5023127;28;20272;-54
2022/05/21 08:45:57;;;;;;;3.45;1.65;;;;;;;16.23;67.83;101204.28;5017919;28;20311;-53
2022/05/21 08:48:24;;;;;;;3.05;1.67;;;;;;;16.23;68.39;101205.16;5020823;28;20239;-51
2022/05/21 08:50:54;;;;;;;3.33;2.10;;;;;;;16.08;69.19;101212.50;5016909;28;20324;-53
2022/05/21 08:53:22;;;;;;;3.90;2.00;;;;;;;15.78;72.49;101225.31;5024760;28;20283;-52
2022/05/21 08:55:51;;;;;;;5.22;2.25;;;;;;;15.47;76.66;101240.69;5021970;28;20394;-52
2022/05/21 08:58:25;;;;;;;5.22;2.35;;;;;;;15.07;85.08;101256.19;5025218;28;20787;-53
2022/05/21 09:00:51;;;;;;;3.83;2.33;;;;;;;14.36;94.95;101251.56;5026671;28;20236;-53
2022/05/21 09:03:20;;;;;;;5.75;2.65;;;;;;;13.92;100.00;101243.94;5027198;28;20256;-53
2022/05/21 09:05:51;;;;;;;3.40;2.45;;;;;;;13.55;100.00;101250.34;5035627;28;20224;-60
2022/05/21 09:08:30;;;;;;;3.35;2.70;;;;;;;13.42;100.00;101248.63;5024294;28;20233;-53
2022/05/21 09:11:01;;;;;;;4.88;3.05;;;;;;;13.44;100.00;101245.97;5021292;28;20721;-53
2022/05/21 09:13:37;;;;;;;3.95;3.40;;;;;;;13.70;100.00;101243.22;5024543;28;20702;-53
2022/05/21 09:18:48;;;;;;;9.27;3.72;;;;;;;13.45;100.00;101245.09;5024733;28;20264;-53
2022/05/21 09:21:18;;;;;;;6.28;3.28;;;;;;;13.53;100.00;101245.94;5026626;28;20657;-53
2022/05/21 09:23:50;;;;;;;3.63;3.25;;;;;;;13.26;100.00;101237.25;5023799;28;20731;-52
2022/05/21 09:26:18;;;;;;;4.15;2.90;;;;;;;13.48;100.00;101247.69;5026731;28;20236;-53
2022/05/21 09:28:48;;;;;;;5.10;3.20;;;;;;;13.59;100.00;101253.81;5023610;28;20256;-52
2022/05/21 09:31:14;;;;;;;5.68;3.13;;;;;;;13.64;99.87;101244.09;5021772;28;20248;-51
2022/05/21 09:33:43;;;;;;;5.70;3.22;;;;;;;13.80;99.36;101243.16;5023564;28;20233;-52
2022/05/21 09:36:10;;;;;;;3.72;3.10;;;;;;;13.92;95.42;101258.03;5026001;28;20269;-52
2022/05/21 09:38:50;;;;;;;5.03;3.08;;;;;;;13.95;95.90;101252.72;5023730;28;20232;-51
2022/05/21 09:41:19;;;;;;;8.43;3.28;;;;;;;14.03;95.46;101244.75;5021768;28;20251;-53
2022/05/21 09:46:37;;;;;;;3.97;3.38;;;;;;;14.18;93.39;101257.88;5017731;28;20267;-53
2022/05/21 09:49:17;;;;;;;3.83;3.08;;;;;;;14.17;92.20;101248.16;5024476;28;20863;-53
2022/05/21 09:51:53;;;;;;;9.75;3.83;;;;;;;14.24;93.77;101252.50;5023791;28;20331;-53
2022/05/21 09:54:21;;;;;;;7.65;4.45;;;;;;;14.29;92.19;101256.00;5015153;28;20666;-55
2022/05/21 09:56:52;;;;;;;5.90;4.15;;;;;;;14.41;91.71;101248.88;5022242;28;20260;-53
2022/05/21 09:59:21;;;;;;;5.63;4.85;;;;;;;14.40;91.85;101248.00;5027031;28;20322;-54
2022/05/21 10:01:49;;;;;;;4.22;3.90;;;;;;;14.52;91.34;101252.31;5026115;28;20232;-54
2022/05/21 10:04:23;;;;;;;6.45;4.60;;;;;;;14.85;89.00;101247.59;5025379;28;20236;-53
2022/05/21 10:06:55;;;;;;;6.43;5.78;;;;;;;15.11;86.89;101240.25;5019918;28;20228;-53
2022/05/21 10:12:13;;;;;;;8.82;6.82;;;;;;;15.63;80.63;101234.31;5027457;28;20298;-52
2022/05/21 10:14:47;;;;;;;8.57;6.35;;;;;;;15.83;82.19;101243.75;5022817;28;20702;-52
2022/05/21 10:17:21;;;;;;;6.22;5.72;;;;;;;15.87;80.30;101240.19;5026532;28;20355;-54
2022/05/21 10:19:54;;;;;;;7.15;6.47;;;;;;;16.16;80.86;101237.97;5024055;28;20306;-52
2022/05/21 10:22:29;;;;;;;7.90;7.10;;;;;;;16.18;77.12;101254.72;5025238;28;20233;-53
2022/05/21 10:25:03;;;;;;;8.32;6.53;;;;;;;16.05;76.46;101250.50;5025830;28;20302;-53
2022/05/21 10:27:47;;;;;;;9.70;6.63;;;;;;;16.18;73.81;101225.56;5013418;28;20303;-52
2022/05/21 10:30:19;;;;;;;7.22;6.47;;;;;;;16.17;74.88;101231.75;5023864;28;20365;-53
2022/05/21 10:33:01;;;;;;;9.00;7.25;;;;;;;16.68;73.40;101230.91;5006200;28;20687;-54
2022/05/21 10:35:38;;;;;;;6.13;5.55;;;;;;;17.11;70.42;101225.66;5028342;28;20232;-52
2022/05/21 10:38:11;;;;;;;7.82;5.43;;;;;;;17.16;70.30;101221.16;5023745;28;20232;-54
2022/05/21 10:40:40;;;;;;;8.07;6.47;;;;;;;17.48;68.85;101209.00;5011580;28;20452;-53
2022/05/21 10:43:25;;;;;;;5.55;4.93;;;;;;;17.93;69.56;101219.47;5014999;28;20252;-53
2022/05/21 10:46:03;;;;;;;5.45;4.90;;;;;;;18.18;67.41;101209.16;5021863;28;20378;-54
2022/05/21 10:48:47;;;;;;;8.23;5.10;;;;;;;18.13;66.67;101206.59;5020646;28;20718;-53
2022/05/21 10:51:17;;;;;;;6.65;4.75;;;;;;;17.66;65.09;101207.69;5019748;28;20674;-51
2022/05/21 10:53:57;;;;;;;5.28;4.82;;;;;;;17.17;66.45;101198.16;5021454;28;20456;-53
2022/05/21 10:56:34;;;;;;;6.10;4.57;;;;;;;17.04;68.39;101201.94;5020168;28;20229;-52
2022/05/21 10:59:09;;;;;;;4.80;4.38;;;;;;;16.73;68.57;101209.59;5024612;28;20246;-53
2022/05/21 11:01:43;;;;;;;7.20;4.85;;;;;;;16.53;70.30;101213.50;5021145;28;20251;-52
2022/05/21 11:04:24;;;;;;;5.75;5.03;;;;;;;16.35;70.47;101213.78;5018065;28;20258;-53
2022/05/21 11:07:06;;;;;;;7.88;4.63;;;;;;;16.49;71.29;101219.72;5021600;28;20275;-52
2022/05/21 11:09:36;;;;;;;4.85;4.25;;;;;;;16.63;69.75;101204.44;5021837;28;20232;-55
2022/05/21 11:12:06;;;;;;;7.05;4.20;;;;;;;16.68;68.73;101204.38;5017290;28;20248;-51
2022/05/21 11:14:39;;;;;;;10.75;4.82;;;;;;;16.85;67.00;101201.44;5019269;28;20237;-52
2022/05/21 11:17:20;;;;;;;6.30;3.70;;;;;;;17.15;64.78;101190.19;5020935;28;20806;-52
2022/05/21 11:19:51;;;;;;;5.13;3.28;;;;;;;17.32;64.12;101181.00;5017493;28;20423;-53
2022/05/21 11:22:22;;;;;;;8.77;4.32;;;;;;;17.23;63.13;101178.56;5021978;28;20232;-52
2022/05/21 11:24:57;;;;;;;5.43;3.47;;;;;;;17.21;63.48;101175.06;5013463;28;20270;-52
2022/05/21 11:27:28;;;;;;;5.45;4.05;;;;;;;17.05;64.89;101183.34;5017108;28;20227;-51
2022/05/21 11:29:57;;;;;;;6.68;4.20;;;;;;;17.01;65.41;101188.75;5016281;28;20260;-52
2022/05/21 11:38:03;;;;;;;7.70;5.50;;;;;;;17.69;64.76;101175.75;5019627;28;20285;-52
2022/05/21 11:43:57;;;;;;;12.63;4.93;;;;;;;18.27;62.35;101189.44;5019889;28;20759;-52
2022/05/21 11:46:34;;;;;;;7.68;4.55;;;;;;;18.45;61.93;101193.41;5022878;28;20232;-52
2022/05/21 11:49:29;;;;;;;6.55;4.40;;;;;;;18.02;62.65;101182.06;5020129;28;20286;-52
2022/05/21 11:51:58;;;;;;;8.90;4.40;;;;;;;17.67;62.15;101190.84;5014100;28;20314;-53
2022/05/21 11:54:57;;;;;;;8.80;4.78;;;;;;;17.28;62.89;101190.81;5020772;28;20232;-53
2022/05/21 11:57:32;;;;;;;5.15;4.47;;;;;;;16.96;64.30;101194.16;5020735;28;20229;-54
2022/05/21 11:59:59;;;;;;;4.15;3.75;;;;;;;16.85;65.76;101194.38;5018283;28;20239;-52
2022/05/21 12:02:27;;;;;;;6.47;3.95;;;;;;;16.96;67.08;101188.84;5009906;28;20272;-52
2022/05/21 12:04:59;;;;;;;5.82;4.25;;;;;;;16.93;66.83;101196.84;5014566;28;20329;-52